Time;durP1;ratioP1;P1;durP2;ratioP2;P2;SDS_P1;SDS_P2;PMS_P1;PMS_P2;Temp;Humidity;BMP_temperature;BMP_pressure;BME280_temperature;BME280_humidity;BME280_pressure;Samples;Min_cycle;Max_cycle;Signal;HPM_P1;HPM_P2
2022/09/21 00:01:09;;;;;;;1.00;0.85;;;;;;;;;;5037514;28;20209;-63
2022/09/21 00:03:40;;;;;;;1.15;1.05;;;;;;;;;;5037915;28;20292;-63
2022/09/21 00:06:08;;;;;;;0.80;0.80;;;;;;;;;;5037850;28;20590;-63
2022/09/21 00:08:36;;;;;;;1.20;1.10;;;;;;;;;;5037206;28;20213;-63
2022/09/21 00:11:04;;;;;;;0.80;0.80;;;;;;;;;;5037645;28;20235;-63
2022/09/21 00:13:36;;;;;;;0.85;0.85;;;;;;;;;;5036995;28;20676;-63
2022/09/21 00:16:06;;;;;;;1.13;1.00;;;;;;;;;;5037171;28;20205;-63
2022/09/21 00:18:34;;;;;;;1.27;1.00;;;;;;;;;;5037613;28;20240;-63
2022/09/21 00:21:06;;;;;;;1.02;0.90;;;;;;;;;;5037486;28;20201;-63
2022/09/21 00:23:36;;;;;;;0.98;0.95;;;;;;;;;;5037438;28;20675;-63
2022/09/21 00:26:07;;;;;;;1.35;1.20;;;;;;;;;;5036978;28;20213;-63
2022/09/21 00:28:35;;;;;;;0.80;0.80;;;;;;;;;;5037017;28;20205;-63
2022/09/21 00:31:03;;;;;;;1.33;1.00;;;;;;;;;;5036955;28;20336;-63
2022/09/21 00:33:31;;;;;;;2.05;0.90;;;;;;;;;;5037367;28;20280;-63
2022/09/21 00:36:04;;;;;;;1.63;0.93;;;;;;;;;;5037170;28;20238;-63
2022/09/21 00:38:33;;;;;;;0.98;0.88;;;;;;;;;;5037484;28;20263;-63
2022/09/21 00:41:00;;;;;;;0.95;0.93;;;;;;;;;;5037282;28;20574;-63
2022/09/21 00:43:28;;;;;;;1.65;1.00;;;;;;;;;;5037401;28;20531;-63
2022/09/21 00:45:59;;;;;;;0.80;0.80;;;;;;;;;;5037141;28;20307;-63
2022/09/21 00:48:27;;;;;;;0.80;0.80;;;;;;;;;;5037437;28;20209;-63
2022/09/21 00:50:56;;;;;;;1.00;0.90;;;;;;;;;;5037439;28;20205;-63
2022/09/21 00:53:25;;;;;;;1.10;1.00;;;;;;;;;;5037382;28;20236;-63
2022/09/21 00:55:55;;;;;;;1.92;1.10;;;;;;;;;;5037267;28;20205;-63
2022/09/21 00:58:24;;;;;;;1.88;0.95;;;;;;;;;;5037017;28;20205;-63
2022/09/21 01:00:52;;;;;;;1.23;1.00;;;;;;;;;;5036864;28;20216;-63
2022/09/21 01:03:19;;;;;;;1.00;0.88;;;;;;;;;;5037267;28;20232;-63
2022/09/21 01:05:47;;;;;;;1.27;0.90;;;;;;;;;;5037264;28;20248;-63
2022/09/21 01:08:15;;;;;;;1.00;0.80;;;;;;;;;;5040836;28;20498;-63
2022/09/21 01:10:51;;;;;;;0.80;0.80;;;;;;;;;;5040804;28;20551;-63
2022/09/21 01:13:23;;;;;;;2.28;0.90;;;;;;;;;;5040726;28;20680;-63
2022/09/21 01:15:53;;;;;;;0.82;0.82;;;;;;;;;;5040282;28;20519;-63
2022/09/21 01:18:22;;;;;;;0.80;0.80;;;;;;;;;;5040704;28;20241;-63
2022/09/21 01:21:11;;;;;;;2.15;0.82;;;;;;;;;;5040643;28;20597;-63
2022/09/21 01:23:46;;;;;;;0.90;0.90;;;;;;;;;;5040485;28;20481;-63
2022/09/21 01:26:22;;;;;;;0.82;0.80;;;;;;;;;;5040860;28;20205;-63
2022/09/21 01:29:04;;;;;;;0.80;0.80;;;;;;;;;;5040716;28;20206;-63
2022/09/21 01:31:36;;;;;;;1.00;0.90;;;;;;;;;;5038669;28;20295;-63
2022/09/21 01:34:08;;;;;;;0.80;0.80;;;;;;;;;;5039969;28;20336;-63
2022/09/21 01:36:35;;;;;;;1.00;0.90;;;;;;;;;;5040449;28;20308;-63
2022/09/21 01:39:05;;;;;;;0.80;0.80;;;;;;;;;;5040539;28;20306;-63
2022/09/21 01:41:34;;;;;;;0.88;0.80;;;;;;;;;;5040449;28;20249;-63
2022/09/21 01:44:07;;;;;;;0.88;0.88;;;;;;;;;;5040211;28;20232;-63
2022/09/21 01:46:37;;;;;;;0.98;0.90;;;;;;;;;;5040335;28;20213;-63
2022/09/21 01:49:08;;;;;;;1.08;0.98;;;;;;;;;;5040030;28;20287;-63
2022/09/21 01:51:37;;;;;;;0.80;0.80;;;;;;;;;;5040325;28;20271;-63
2022/09/21 01:54:07;;;;;;;0.70;0.70;;;;;;;;;;5040043;28;20226;-63
2022/09/21 01:56:37;;;;;;;0.80;0.80;;;;;;;;;;5039991;28;20205;-63
2022/09/21 01:59:08;;;;;;;0.95;0.80;;;;;;;;;;5039875;28;20206;-63
2022/09/21 02:01:42;;;;;;;0.93;0.93;;;;;;;;;;5040255;28;20700;-63
2022/09/21 02:04:10;;;;;;;0.75;0.70;;;;;;;;;;5039909;28;20200;-63
2022/09/21 02:06:39;;;;;;;0.80;0.70;;;;;;;;;;5039720;28;20301;-63
2022/09/21 02:09:06;;;;;;;0.77;0.77;;;;;;;;;;5039940;28;20241;-63
2022/09/21 02:11:37;;;;;;;1.17;0.80;;;;;;;;;;5039720;28;20292;-63
2022/09/21 02:14:07;;;;;;;0.95;0.90;;;;;;;;;;5039395;28;20237;-63
2022/09/21 02:16:40;;;;;;;0.80;0.80;;;;;;;;;;5039808;28;20216;-63
2022/09/21 02:19:12;;;;;;;1.02;0.70;;;;;;;;;;5039634;28;20236;-63
2022/09/21 02:21:47;;;;;;;0.73;0.73;;;;;;;;;;5039540;28;20300;-63
2022/09/21 02:24:20;;;;;;;0.63;0.63;;;;;;;;;;5039143;28;20201;-63
2022/09/21 02:26:51;;;;;;;0.80;0.80;;;;;;;;;;5038952;28;20210;-63
2022/09/21 02:29:26;;;;;;;0.55;0.55;;;;;;;;;;5039514;28;20245;-63
2022/09/21 02:32:00;;;;;;;0.93;0.82;;;;;;;;;;5039470;28;20271;-63
2022/09/21 02:34:32;;;;;;;0.65;0.65;;;;;;;;;;5038851;28;20225;-63
2022/09/21 02:37:03;;;;;;;0.70;0.70;;;;;;;;;;5038916;28;20229;-63
2022/09/21 02:39:34;;;;;;;0.82;0.82;;;;;;;;;;5039267;28;20216;-63
2022/09/21 02:42:04;;;;;;;1.38;0.82;;;;;;;;;;5038995;28;20288;-63
2022/09/21 02:44:33;;;;;;;0.77;0.77;;;;;;;;;;5039395;28;20237;-63
2022/09/21 02:47:05;;;;;;;0.68;0.68;;;;;;;;;;5038962;28;20220;-63
2022/09/21 02:49:35;;;;;;;0.60;0.60;;;;;;;;;;5039103;28;20304;-63
2022/09/21 02:52:05;;;;;;;0.75;0.75;;;;;;;;;;5038496;28;20249;-63
2022/09/21 02:54:33;;;;;;;0.70;0.70;;;;;;;;;;5038461;28;20364;-63
2022/09/21 02:57:02;;;;;;;0.68;0.68;;;;;;;;;;5039140;28;20206;-63
2022/09/21 02:59:30;;;;;;;0.70;0.60;;;;;;;;;;5038671;28;20259;-63
2022/09/21 03:01:58;;;;;;;0.50;0.50;;;;;;;;;;5038689;28;20271;-63
2022/09/21 03:04:27;;;;;;;0.77;0.70;;;;;;;;;;5038390;28;20252;-63
2022/09/21 03:06:55;;;;;;;0.68;0.68;;;;;;;;;;5038497;28;20205;-63
2022/09/21 03:09:23;;;;;;;0.90;0.90;;;;;;;;;;5038782;28;20217;-63
2022/09/21 03:11:51;;;;;;;0.60;0.60;;;;;;;;;;5038261;28;20229;-63
2022/09/21 03:14:18;;;;;;;0.80;0.80;;;;;;;;;;5038581;28;20226;-63
2022/09/21 03:16:46;;;;;;;0.80;0.80;;;;;;;;;;5038016;28;20205;-63
2022/09/21 03:19:14;;;;;;;0.80;0.80;;;;;;;;;;5037905;28;20206;-63
2022/09/21 03:21:43;;;;;;;0.80;0.80;;;;;;;;;;5037909;28;20210;-63
2022/09/21 03:24:10;;;;;;;0.73;0.73;;;;;;;;;;5038114;28;20286;-63
2022/09/21 03:26:38;;;;;;;1.33;0.77;;;;;;;;;;5037700;28;20660;-63
2022/09/21 03:29:05;;;;;;;0.57;0.57;;;;;;;;;;5037452;28;20205;-63
2022/09/21 03:31:34;;;;;;;0.77;0.77;;;;;;;;;;5038042;28;20301;-63
2022/09/21 03:34:01;;;;;;;0.80;0.80;;;;;;;;;;5037701;28;20324;-63
2022/09/21 03:36:29;;;;;;;0.68;0.68;;;;;;;;;;5037988;28;20216;-63
2022/09/21 03:38:58;;;;;;;0.88;0.88;;;;;;;;;;5037438;28;20312;-63
2022/09/21 03:41:25;;;;;;;0.85;0.85;;;;;;;;;;5037915;28;20301;-63
2022/09/21 03:43:53;;;;;;;1.42;0.80;;;;;;;;;;5037938;28;20237;-63
2022/09/21 03:46:20;;;;;;;0.60;0.60;;;;;;;;;;5038099;28;20661;-63
2022/09/21 03:48:48;;;;;;;0.70;0.70;;;;;;;;;;5037398;28;20237;-63
2022/09/21 03:51:16;;;;;;;0.70;0.70;;;;;;;;;;5037362;28;20271;-63
2022/09/21 03:53:43;;;;;;;0.70;0.70;;;;;;;;;;5037135;28;20229;-63
2022/09/21 03:56:12;;;;;;;0.70;0.70;;;;;;;;;;5036999;28;20237;-63
2022/09/21 03:58:40;;;;;;;0.70;0.70;;;;;;;;;;5036973;28;20205;-63
2022/09/21 04:01:08;;;;;;;0.80;0.80;;;;;;;;;;5037199;28;20223;-63
2022/09/21 04:03:36;;;;;;;0.85;0.75;;;;;;;;;;5037217;28;20670;-63
2022/09/21 04:06:09;;;;;;;0.70;0.70;;;;;;;;;;5036686;28;20300;-63
2022/09/21 04:08:36;;;;;;;0.60;0.60;;;;;;;;;;5037263;28;20213;-63
2022/09/21 04:11:10;;;;;;;0.70;0.70;;;;;;;;;;5036993;28;20304;-63
2022/09/21 04:13:41;;;;;;;0.60;0.60;;;;;;;;;;5036951;28;20232;-63
2022/09/21 04:16:09;;;;;;;0.77;0.77;;;;;;;;;;5037000;28;20770;-63
2022/09/21 04:18:37;;;;;;;0.85;0.85;;;;;;;;;;5036738;28;20209;-63
2022/09/21 04:21:05;;;;;;;0.60;0.60;;;;;;;;;;5036608;28;20224;-63
2022/09/21 04:23:35;;;;;;;0.70;0.70;;;;;;;;;;5036540;28;20202;-63
2022/09/21 04:26:02;;;;;;;0.80;0.80;;;;;;;;;;5036440;28;20205;-63
2022/09/21 04:28:31;;;;;;;0.82;0.82;;;;;;;;;;5036058;28;20233;-63
2022/09/21 04:31:00;;;;;;;0.75;0.75;;;;;;;;;;5036236;28;20288;-63
2022/09/21 04:33:28;;;;;;;0.70;0.70;;;;;;;;;;5035888;28;20328;-63
2022/09/21 04:35:56;;;;;;;0.60;0.60;;;;;;;;;;5034770;28;20242;-63
2022/09/21 04:38:23;;;;;;;0.88;0.88;;;;;;;;;;5034067;28;20206;-63
2022/09/21 04:40:57;;;;;;;0.68;0.68;;;;;;;;;;5034391;28;20252;-63
2022/09/21 04:43:25;;;;;;;0.63;0.63;;;;;;;;;;5037626;28;20295;-63
2022/09/21 04:45:52;;;;;;;0.70;0.70;;;;;;;;;;5038630;28;20232;-63
2022/09/21 04:48:21;;;;;;;0.80;0.80;;;;;;;;;;5037939;28;20445;-63
2022/09/21 04:50:49;;;;;;;0.65;0.65;;;;;;;;;;5037959;28;20274;-63
2022/09/21 04:53:17;;;;;;;0.70;0.70;;;;;;;;;;5037191;28;20240;-63
2022/09/21 04:55:46;;;;;;;0.70;0.70;;;;;;;;;;5036966;28;20240;-63
2022/09/21 04:58:13;;;;;;;0.60;0.60;;;;;;;;;;5037640;28;20224;-63
2022/09/21 05:00:41;;;;;;;0.60;0.60;;;;;;;;;;5037289;28;20205;-63
2022/09/21 05:03:08;;;;;;;0.65;0.65;;;;;;;;;;5037190;28;20301;-63
2022/09/21 05:05:37;;;;;;;0.82;0.82;;;;;;;;;;5037003;28;20237;-63
2022/09/21 05:08:05;;;;;;;0.70;0.63;;;;;;;;;;5036733;28;20583;-63
2022/09/21 05:10:31;;;;;;;0.60;0.60;;;;;;;;;;5036212;28;20305;-63
2022/09/21 05:12:58;;;;;;;0.73;0.73;;;;;;;;;;5037150;28;20660;-63
2022/09/21 05:15:26;;;;;;;1.50;0.63;;;;;;;;;;5036847;28;20216;-63
2022/09/21 05:17:53;;;;;;;0.70;0.70;;;;;;;;;;5036380;28;20300;-63
2022/09/21 05:20:20;;;;;;;0.80;0.80;;;;;;;;;;5035346;28;20491;-63
2022/09/21 05:22:50;;;;;;;0.75;0.75;;;;;;;;;;5035822;28;20304;-63
2022/09/21 05:25:17;;;;;;;0.70;0.70;;;;;;;;;;5036039;28;20609;-63
2022/09/21 05:27:45;;;;;;;0.65;0.65;;;;;;;;;;5036078;28;20316;-63
2022/09/21 05:30:13;;;;;;;0.80;0.80;;;;;;;;;;5035746;28;20237;-63
2022/09/21 05:32:44;;;;;;;0.77;0.77;;;;;;;;;;5036653;28;20206;-63
2022/09/21 05:35:17;;;;;;;0.75;0.75;;;;;;;;;;4993241;28;1245901;-63
2022/09/21 05:37:47;;;;;;;0.70;0.70;;;;;;;;;;5036742;28;20306;-63
2022/09/21 05:40:17;;;;;;;1.25;0.80;;;;;;;;;;5036790;28;20586;-63
2022/09/21 05:42:45;;;;;;;0.70;0.70;;;;;;;;;;5036821;28;20206;-63
2022/09/21 05:45:18;;;;;;;0.80;0.75;;;;;;;;;;5036180;28;20202;-63
2022/09/21 05:47:50;;;;;;;0.60;0.60;;;;;;;;;;5035997;28;20300;-63
2022/09/21 05:50:26;;;;;;;0.70;0.70;;;;;;;;;;5035245;28;20669;-63
2022/09/21 05:52:57;;;;;;;0.68;0.68;;;;;;;;;;5036663;28;20248;-63
2022/09/21 05:55:31;;;;;;;0.80;0.80;;;;;;;;;;5036759;28;20650;-63
2022/09/21 05:58:02;;;;;;;0.80;0.80;;;;;;;;;;5036572;28;20318;-63
2022/09/21 06:00:35;;;;;;;0.60;0.60;;;;;;;;;;5036679;28;20216;-63
2022/09/21 06:03:15;;;;;;;0.60;0.60;;;;;;;;;;5037064;28;20301;-64
2022/09/21 06:05:44;;;;;;;0.90;0.90;;;;;;;;;;5036881;28;20303;-63
2022/09/21 06:08:11;;;;;;;0.85;0.60;;;;;;;;;;5035920;28;20201;-64
2022/09/21 06:10:40;;;;;;;0.52;0.52;;;;;;;;;;5036135;28;20194;-65
2022/09/21 06:13:08;;;;;;;0.90;0.90;;;;;;;;;;5037375;28;20298;-64
2022/09/21 06:15:37;;;;;;;1.55;0.70;;;;;;;;;;5036260;28;20229;-64
2022/09/21 06:18:05;;;;;;;1.38;1.00;;;;;;;;;;5036206;28;20312;-64
2022/09/21 06:20:32;;;;;;;0.95;0.88;;;;;;;;;;5036110;28;20209;-64
2022/09/21 06:23:01;;;;;;;2.63;0.70;;;;;;;;;;5036854;28;20230;-63
2022/09/21 06:25:28;;;;;;;1.30;0.70;;;;;;;;;;5036717;28;20202;-64
2022/09/21 06:28:03;;;;;;;1.45;0.90;;;;;;;;;;5036898;28;20224;-64
2022/09/21 06:30:32;;;;;;;1.00;0.90;;;;;;;;;;5036538;28;20271;-63
2022/09/21 06:33:00;;;;;;;0.90;0.80;;;;;;;;;;5036781;28;20267;-63
2022/09/21 06:35:28;;;;;;;1.15;0.60;;;;;;;;;;5036891;28;20230;-63
2022/09/21 06:37:58;;;;;;;0.80;0.80;;;;;;;;;;5036536;28;20751;-63
2022/09/21 06:40:26;;;;;;;0.68;0.68;;;;;;;;;;5036577;28;20213;-63
2022/09/21 06:42:58;;;;;;;1.13;0.80;;;;;;;;;;5036644;28;20300;-62
2022/09/21 06:45:25;;;;;;;0.80;0.80;;;;;;;;;;5036193;28;20499;-63
2022/09/21 06:47:53;;;;;;;0.70;0.70;;;;;;;;;;5035989;28;20245;-63
2022/09/21 06:50:20;;;;;;;1.42;0.90;;;;;;;;;;5035594;28;20484;-63
2022/09/21 06:52:48;;;;;;;1.08;0.98;;;;;;;;;;5035596;28;20278;-63
2022/09/21 06:55:16;;;;;;;1.00;0.85;;;;;;;;;;5035242;28;20237;-63
2022/09/21 06:57:44;;;;;;;1.08;1.00;;;;;;;;;;5036241;28;20549;-63
2022/09/21 07:00:14;;;;;;;0.70;0.70;;;;;;;;;;5035798;28;20289;-63
2022/09/21 07:02:44;;;;;;;0.88;0.88;;;;;;;;;;5035298;28;20305;-63
2022/09/21 07:05:12;;;;;;;0.88;0.88;;;;;;;;;;5033967;28;20586;-63
2022/09/21 07:07:42;;;;;;;0.75;0.75;;;;;;;;;;5034517;28;20617;-63
2022/09/21 07:10:10;;;;;;;0.90;0.90;;;;;;;;;;5034170;28;20202;-63
2022/09/21 07:12:37;;;;;;;1.08;1.02;;;;;;;;;;5034563;28;20532;-62
2022/09/21 07:15:06;;;;;;;1.65;0.90;;;;;;;;;;5034219;28;20316;-63
2022/09/21 07:17:35;;;;;;;1.10;1.00;;;;;;;;;;5035086;28;20249;-62
2022/09/21 07:20:03;;;;;;;1.20;0.95;;;;;;;;;;5035333;28;20206;-63
2022/09/21 07:22:31;;;;;;;1.10;1.00;;;;;;;;;;5035179;28;20264;-63
2022/09/21 07:24:58;;;;;;;1.00;1.00;;;;;;;;;;5035161;28;20229;-63
2022/09/21 07:27:26;;;;;;;1.10;1.10;;;;;;;;;;5034458;28;20586;-63
2022/09/21 07:29:54;;;;;;;1.20;1.08;;;;;;;;;;5034709;28;20237;-63
2022/09/21 07:32:21;;;;;;;1.13;0.82;;;;;;;;;;5033995;28;20267;-63
2022/09/21 07:34:55;;;;;;;1.75;1.17;;;;;;;;;;5034691;28;20326;-63
2022/09/21 07:37:23;;;;;;;1.00;0.90;;;;;;;;;;5034525;28;20213;-63
2022/09/21 07:39:51;;;;;;;1.20;1.10;;;;;;;;;;5034588;28;20517;-63
2022/09/21 07:42:19;;;;;;;1.30;1.20;;;;;;;;;;5033987;28;20304;-63
2022/09/21 07:44:46;;;;;;;1.23;1.13;;;;;;;;;;5034371;28;20515;-63
2022/09/21 07:47:14;;;;;;;1.40;1.30;;;;;;;;;;5033214;28;20201;-63
2022/09/21 07:49:42;;;;;;;1.40;1.30;;;;;;;;;;5033447;28;20480;-63
2022/09/21 07:52:11;;;;;;;13.52;11.82;;;;;;;;;;5034310;28;20217;-63
2022/09/21 07:54:38;;;;;;;42.97;37.08;;;;;;;;;;5033266;28;20716;-63
2022/09/21 07:59:51;;;;;;;50.65;44.22;;;;;;;;;;5033662;28;20639;-63
2022/09/21 08:02:18;;;;;;;48.25;42.20;;;;;;;;;;5034304;28;20252;-63
2022/09/21 08:04:46;;;;;;;47.08;41.90;;;;;;;;;;5033831;28;20268;-63
2022/09/21 08:07:15;;;;;;;47.80;40.72;;;;;;;;;;5034773;28;20593;-63
2022/09/21 08:09:42;;;;;;;42.25;37.78;;;;;;;;;;5033707;28;20267;-63
2022/09/21 08:12:10;;;;;;;40.95;34.80;;;;;;;;;;5033168;28;20316;-64
2022/09/21 08:14:37;;;;;;;38.75;33.10;;;;;;;;;;5033721;28;20687;-63
2022/09/21 08:17:05;;;;;;;37.10;30.80;;;;;;;;;;5033857;28;20206;-63
2022/09/21 08:19:33;;;;;;;36.00;32.03;;;;;;;;;;5034023;28;20571;-63
2022/09/21 08:22:00;;;;;;;43.55;39.03;;;;;;;;;;5033065;28;20732;-63
2022/09/21 08:24:30;;;;;;;41.85;37.55;;;;;;;;;;5033460;28;20202;-63
2022/09/21 08:26:57;;;;;;;37.20;33.22;;;;;;;;;;5034268;28;20586;-63
2022/09/21 08:29:25;;;;;;;35.60;31.95;;;;;;;;;;5033985;28;20304;-63
2022/09/21 08:31:52;;;;;;;34.35;30.77;;;;;;;;;;5033095;28;20296;-63
2022/09/21 08:34:20;;;;;;;30.70;27.60;;;;;;;;;;5032526;28;20288;-63
2022/09/21 08:36:47;;;;;;;31.33;28.02;;;;;;;;;;5034092;28;20202;-63
2022/09/21 08:39:15;;;;;;;93.88;83.32;;;;;;;;;;5033820;28;20210;-63
2022/09/21 08:41:48;;;;;;;117.57;99.00;;;;;;;;;;5033691;28;20605;-63
2022/09/21 08:44:18;;;;;;;105.40;88.97;;;;;;;;;;5034137;28;20297;-63
2022/09/21 08:46:47;;;;;;;94.68;82.00;;;;;;;;;;5034197;28;20512;-63
2022/09/21 08:49:17;;;;;;;89.22;73.55;;;;;;;;;;5033357;28;20237;-63
2022/09/21 08:51:49;;;;;;;77.25;66.07;;;;;;;;;;5034124;28;20271;-63
2022/09/21 08:54:20;;;;;;;74.80;61.50;;;;;;;;;;5033138;28;20296;-63
2022/09/21 08:56:49;;;;;;;65.03;57.60;;;;;;;;;;5033422;28;20197;-63
2022/09/21 08:59:17;;;;;;;63.58;56.40;;;;;;;;;;5034450;28;20304;-63
2022/09/21 09:01:50;;;;;;;60.33;52.10;;;;;;;;;;5034160;28;20217;-63
2022/09/21 09:04:28;;;;;;;56.42;48.67;;;;;;;;;;5033004;28;20315;-63
2022/09/21 09:07:02;;;;;;;51.53;45.05;;;;;;;;;;5033481;28;20569;-63
2022/09/21 09:09:44;;;;;;;48.08;42.88;;;;;;;;;;5034267;28;20201;-63
2022/09/21 09:12:19;;;;;;;47.03;40.38;;;;;;;;;;5033223;28;20213;-63
2022/09/21 09:14:58;;;;;;;45.08;40.13;;;;;;;;;;5033642;28;20232;-63
2022/09/21 09:17:33;;;;;;;42.45;36.72;;;;;;;;;;5034004;28;20259;-62
2022/09/21 09:20:03;;;;;;;38.88;33.85;;;;;;;;;;5032422;28;20303;-63
2022/09/21 09:22:33;;;;;;;36.05;32.25;;;;;;;;;;5033474;28;20272;-63
2022/09/21 09:25:03;;;;;;;34.30;30.80;;;;;;;;;;5033359;28;20200;-63
2022/09/21 09:27:35;;;;;;;31.58;28.13;;;;;;;;;;5034905;28;20198;-63
2022/09/21 09:30:05;;;;;;;31.63;27.60;;;;;;;;;;5037553;28;20300;-63
2022/09/21 09:32:42;;;;;;;30.45;27.17;;;;;;;;;;5036363;28;20224;-63
2022/09/21 09:35:16;;;;;;;27.90;24.55;;;;;;;;;;5036521;28;20299;-64
2022/09/21 09:37:43;;;;;;;27.30;24.25;;;;;;;;;;5037590;28;20240;-63
2022/09/21 09:40:13;;;;;;;27.27;23.10;;;;;;;;;;5037790;28;20205;-63
2022/09/21 09:42:47;;;;;;;26.17;21.77;;;;;;;;;;5037267;28;20241;-63
2022/09/21 09:45:24;;;;;;;23.08;20.58;;;;;;;;;;5036965;28;20268;-63
2022/09/21 09:47:58;;;;;;;22.30;19.90;;;;;;;;;;5037031;28;20304;-63
2022/09/21 09:50:28;;;;;;;21.98;19.52;;;;;;;;;;5036781;28;20205;-63
2022/09/21 09:53:00;;;;;;;20.85;18.65;;;;;;;;;;5037136;28;20419;-63
2022/09/21 09:55:30;;;;;;;19.63;17.52;;;;;;;;;;5036923;28;20629;-63
2022/09/21 09:57:59;;;;;;;19.63;17.42;;;;;;;;;;5036864;28;20241;-62
2022/09/21 10:00:27;;;;;;;18.70;16.40;;;;;;;;;;5036982;28;20245;-63
2022/09/21 10:02:55;;;;;;;17.23;15.30;;;;;;;;;;5036354;28;20241;-63
2022/09/21 10:05:24;;;;;;;17.40;15.60;;;;;;;;;;5036635;28;20208;-63
2022/09/21 10:07:53;;;;;;;17.10;15.30;;;;;;;;;;5035106;28;20301;-63
2022/09/21 10:10:24;;;;;;;15.32;13.73;;;;;;;;;;5034798;28;20209;-63
2022/09/21 10:12:52;;;;;;;15.15;13.52;;;;;;;;;;5035144;28;20220;-63
2022/09/21 10:15:21;;;;;;;14.18;12.68;;;;;;;;;;5034987;28;20226;-63
2022/09/21 10:17:49;;;;;;;13.48;12.15;;;;;;;;;;5035343;28;20209;-63
2022/09/21 10:20:19;;;;;;;14.10;12.40;;;;;;;;;;5035040;28;20202;-63
2022/09/21 10:22:47;;;;;;;13.18;11.77;;;;;;;;;;5035444;28;20562;-63
2022/09/21 10:25:16;;;;;;;12.85;11.35;;;;;;;;;;5033872;28;20202;-64
2022/09/21 10:27:44;;;;;;;12.43;11.10;;;;;;;;;;5035427;28;20578;-64
2022/09/21 10:30:32;;;;;;;12.38;11.07;;;;;;;;;;5035196;28;20288;-63
2022/09/21 10:33:00;;;;;;;11.13;9.95;;;;;;;;;;5035321;28;20206;-63
2022/09/21 10:35:28;;;;;;;11.70;9.50;;;;;;;;;;5035253;28;20240;-63
2022/09/21 10:38:11;;;;;;;11.13;10.00;;;;;;;;;;5034534;28;20233;-63
2022/09/21 10:40:40;;;;;;;10.15;9.07;;;;;;;;;;5031839;28;20224;-63
2022/09/21 10:43:21;;;;;;;10.35;8.50;;;;;;;;;;5034352;28;20205;-64
2022/09/21 10:45:54;;;;;;;9.25;8.32;;;;;;;;;;5035070;28;20198;-63
2022/09/21 10:48:22;;;;;;;10.02;9.02;;;;;;;;;;5034918;28;20216;-63
2022/09/21 10:50:51;;;;;;;8.50;7.60;;;;;;;;;;5035120;28;20466;-63
2022/09/21 10:53:23;;;;;;;8.55;7.70;;;;;;;;;;5034469;28;20291;-63
2022/09/21 10:55:54;;;;;;;9.63;8.05;;;;;;;;;;5034652;28;20236;-63
2022/09/21 10:58:21;;;;;;;8.95;8.05;;;;;;;;;;5034012;28;20598;-63
2022/09/21 11:00:52;;;;;;;8.35;7.47;;;;;;;;;;5034046;28;20294;-63
2022/09/21 11:03:40;;;;;;;8.05;6.90;;;;;;;;;;5033616;28;20645;-63
2022/09/21 11:06:10;;;;;;;8.52;7.60;;;;;;;;;;5032745;28;20703;-63
2022/09/21 11:08:39;;;;;;;7.38;6.50;;;;;;;;;;5032853;28;20307;-63
2022/09/21 11:11:18;;;;;;;7.32;6.63;;;;;;;;;;5034153;28;20205;-63
2022/09/21 11:13:49;;;;;;;7.78;6.88;;;;;;;;;;5033588;28;20608;-63
2022/09/21 11:16:19;;;;;;;7.00;6.30;;;;;;;;;;5032970;28;20264;-63
2022/09/21 11:18:52;;;;;;;6.97;6.28;;;;;;;;;;5033833;28;20213;-63
2022/09/21 11:21:26;;;;;;;6.82;6.00;;;;;;;;;;5032949;28;20270;-63
2022/09/21 11:24:03;;;;;;;6.43;5.82;;;;;;;;;;5033349;28;20216;-63
2022/09/21 11:26:35;;;;;;;5.90;5.30;;;;;;;;;;5033264;28;20202;-63
2022/09/21 11:29:07;;;;;;;6.25;5.65;;;;;;;;;;5033999;28;20237;-63
2022/09/21 11:31:55;;;;;;;5.72;5.22;;;;;;;;;;5032931;28;20292;-63
2022/09/21 11:34:36;;;;;;;5.72;5.22;;;;;;;;;;5029607;28;20234;-63
2022/09/21 11:37:09;;;;;;;5.88;5.28;;;;;;;;;;5033031;28;20228;-63
2022/09/21 11:39:41;;;;;;;6.00;5.30;;;;;;;;;;5033492;28;20228;-63
2022/09/21 11:42:14;;;;;;;5.55;5.05;;;;;;;;;;5032532;28;20289;-63
2022/09/21 11:44:49;;;;;;;5.75;4.97;;;;;;;;;;5033646;28;20209;-63
2022/09/21 11:47:30;;;;;;;5.30;4.50;;;;;;;;;;5033277;28;20208;-63
2022/09/21 11:50:08;;;;;;;5.00;4.50;;;;;;;;;;5034235;28;20527;-63
2022/09/21 11:52:42;;;;;;;5.20;4.70;;;;;;;;;;5033614;28;20292;-63
2022/09/21 11:55:23;;;;;;;4.40;4.00;;;;;;;;;;5034005;28;20270;-63
2022/09/21 11:57:55;;;;;;;4.70;4.18;;;;;;;;;;5034086;28;20616;-63
2022/09/21 12:00:23;;;;;;;6.03;4.43;;;;;;;;;;5032919;28;20303;-63
2022/09/21 12:03:07;;;;;;;4.55;4.13;;;;;;;;;;5032814;28;20808;-63
2022/09/21 12:05:39;;;;;;;4.93;4.43;;;;;;;;;;5032003;28;20758;-63
2022/09/21 12:08:29;;;;;;;5.38;4.28;;;;;;;;;;5032289;28;20212;-63
2022/09/21 12:11:03;;;;;;;4.30;3.90;;;;;;;;;;5033442;28;20289;-63
2022/09/21 12:13:36;;;;;;;4.25;3.85;;;;;;;;;;5033185;28;20206;-63
2022/09/21 12:16:05;;;;;;;4.05;3.65;;;;;;;;;;5032734;28;20233;-63
2022/09/21 12:18:39;;;;;;;4.03;3.63;;;;;;;;;;5033357;28;20630;-63
2022/09/21 12:21:11;;;;;;;5.03;3.90;;;;;;;;;;5032981;28;20201;-63
2022/09/21 12:23:42;;;;;;;4.22;3.58;;;;;;;;;;5032587;28;20205;-63
2022/09/21 12:26:11;;;;;;;4.35;3.90;;;;;;;;;;5032608;28;20259;-63
2022/09/21 12:28:40;;;;;;;4.20;3.78;;;;;;;;;;5032975;28;20213;-63
2022/09/21 12:31:12;;;;;;;4.07;3.58;;;;;;;;;;5032176;28;20785;-63
2022/09/21 12:33:44;;;;;;;5.00;3.20;;;;;;;;;;5033254;28;20205;-63
2022/09/21 12:36:16;;;;;;;4.78;3.50;;;;;;;;;;5032562;28;20261;-63
2022/09/21 12:38:46;;;;;;;4.70;3.50;;;;;;;;;;5032423;28;20212;-63
2022/09/21 12:41:17;;;;;;;3.90;3.38;;;;;;;;;;5032673;28;20216;-63
2022/09/21 12:43:47;;;;;;;4.53;3.70;;;;;;;;;;5031928;28;21169;-63
2022/09/21 12:46:17;;;;;;;4.85;3.47;;;;;;;;;;5033101;28;20291;-63
2022/09/21 12:48:45;;;;;;;3.85;3.45;;;;;;;;;;5033310;28;20383;-63
2022/09/21 12:51:16;;;;;;;4.75;3.40;;;;;;;;;;5034241;28;20709;-63
2022/09/21 12:53:46;;;;;;;4.88;3.60;;;;;;;;;;5033907;28;20205;-63
2022/09/21 12:56:20;;;;;;;5.53;3.55;;;;;;;;;;5033607;28;20652;-63
2022/09/21 12:58:52;;;;;;;4.55;3.22;;;;;;;;;;5032904;28;20548;-63
2022/09/21 13:01:25;;;;;;;4.07;3.00;;;;;;;;;;5033776;28;20205;-63
2022/09/21 13:04:02;;;;;;;4.63;3.20;;;;;;;;;;5036383;28;20206;-63
2022/09/21 13:06:50;;;;;;;4.72;3.63;;;;;;;;;;5036923;28;20268;-63
2022/09/21 13:09:20;;;;;;;7.47;6.28;;;;;;;;;;5032952;28;20214;-63
2022/09/21 13:11:53;;;;;;;8.85;6.15;;;;;;;;;;5035523;28;20268;-63
2022/09/21 13:14:23;;;;;;;13.95;9.07;;;;;;;;;;5036264;28;20207;-63
2022/09/21 13:16:56;;;;;;;11.60;8.82;;;;;;;;;;5036733;28;20233;-63
2022/09/21 13:19:24;;;;;;;12.77;8.63;;;;;;;;;;5036156;28;20205;-63
2022/09/21 13:22:14;;;;;;;10.80;8.57;;;;;;;;;;5035147;28;20308;-63
2022/09/21 13:24:44;;;;;;;10.25;7.80;;;;;;;;;;5036926;28;20601;-63
2022/09/21 13:27:12;;;;;;;9.63;7.38;;;;;;;;;;5036634;28;20198;-63
2022/09/21 13:29:41;;;;;;;8.95;7.20;;;;;;;;;;5036747;28;20252;-63
2022/09/21 13:32:23;;;;;;;8.18;7.07;;;;;;;;;;5035961;28;20205;-63
2022/09/21 13:34:50;;;;;;;10.70;6.88;;;;;;;;;;5036353;28;20332;-63
2022/09/21 13:37:29;;;;;;;8.60;6.05;;;;;;;;;;5036920;28;20781;-63
2022/09/21 13:40:15;;;;;;;7.65;5.88;;;;;;;;;;5036802;28;20209;-63
2022/09/21 13:42:48;;;;;;;9.05;5.75;;;;;;;;;;5028537;28;20205;-63
2022/09/21 13:45:50;;;;;;;6.32;5.45;;;;;;;;;;5036487;28;20208;-63
2022/09/21 13:48:26;;;;;;;7.75;5.82;;;;;;;;;;4994451;28;20234;-63
2022/09/21 13:50:57;;;;;;;9.68;5.38;;;;;;;;;;4993454;28;20642;-63
2022/09/21 13:53:27;;;;;;;6.05;5.00;;;;;;;;;;5016857;28;20218;-63
2022/09/21 13:55:56;;;;;;;10.05;5.90;;;;;;;;;;5035688;28;20290;-63
2022/09/21 13:58:26;;;;;;;5.93;4.65;;;;;;;;;;5036344;28;20823;-63
2022/09/21 14:00:55;;;;;;;6.28;4.93;;;;;;;;;;5036482;28;20206;-63
2022/09/21 14:03:25;;;;;;;6.70;4.68;;;;;;;;;;5035686;28;20217;-63
2022/09/21 14:05:54;;;;;;;8.00;4.78;;;;;;;;;;5035859;28;20217;-63
2022/09/21 14:08:24;;;;;;;5.65;4.40;;;;;;;;;;5035814;28;20237;-63
2022/09/21 14:10:54;;;;;;;6.78;4.30;;;;;;;;;;5035806;28;20280;-63
2022/09/21 14:13:29;;;;;;;5.93;4.13;;;;;;;;;;5034970;28;20590;-63
2022/09/21 14:16:16;;;;;;;5.38;4.00;;;;;;;;;;5035604;28;20271;-63
2022/09/21 14:18:45;;;;;;;7.25;3.70;;;;;;;;;;5035442;28;20213;-63
2022/09/21 14:21:17;;;;;;;5.00;3.92;;;;;;;;;;5035805;28;20480;-63
2022/09/21 14:24:03;;;;;;;5.80;3.63;;;;;;;;;;5035076;28;20205;-63
2022/09/21 14:26:35;;;;;;;6.10;3.88;;;;;;;;;;5035036;28;20205;-63
2022/09/21 14:29:09;;;;;;;3.88;3.40;;;;;;;;;;5035194;28;20215;-63
2022/09/21 14:31:38;;;;;;;4.70;3.75;;;;;;;;;;5034220;28;20213;-63
2022/09/21 14:34:11;;;;;;;4.57;3.60;;;;;;;;;;5034006;28;20320;-63
2022/09/21 14:36:41;;;;;;;6.50;3.30;;;;;;;;;;5034371;28;20230;-63
2022/09/21 14:39:16;;;;;;;4.55;3.22;;;;;;;;;;5034883;28;20587;-63
2022/09/21 14:41:46;;;;;;;3.72;3.28;;;;;;;;;;5035596;28;20250;-63
2022/09/21 14:44:21;;;;;;;4.85;3.35;;;;;;;;;;5024273;28;20207;-63
2022/09/21 14:46:53;;;;;;;4.88;3.17;;;;;;;;;;5014108;28;20292;-63
2022/09/21 14:49:37;;;;;;;5.65;3.58;;;;;;;;;;5014846;28;20213;-63
2022/09/21 14:52:10;;;;;;;3.45;2.85;;;;;;;;;;5033213;28;20201;-63
2022/09/21 14:54:42;;;;;;;3.90;2.83;;;;;;;;;;5034855;28;20679;-63
2022/09/21 14:57:19;;;;;;;3.30;2.80;;;;;;;;;;5033689;28;20221;-63
2022/09/21 14:59:55;;;;;;;3.97;2.47;;;;;;;;;;5034245;28;20509;-63
2022/09/21 15:02:23;;;;;;;2.97;2.67;;;;;;;;;;5035073;28;20295;-63